Time;durP1;ratioP1;P1;durP2;ratioP2;P2;SDS_P1;SDS_P2;PMS_P1;PMS_P2;Temp;Humidity;BMP_temperature;BMP_pressure;BME280_temperature;BME280_humidity;BME280_pressure;Samples;Min_cycle;Max_cycle;Signal;HPM_P1;HPM_P2
2022/01/16 00:00:16;;;;;;;40.03;21.60;;;;;;;14.83;41.98;101282.06;4413533;32;20029;-69
2022/01/16 00:05:35;;;;;;;41.65;20.80;;;;;;;15.42;41.60;101289.78;3979510;32;15047547;-70
2022/01/16 00:08:01;;;;;;;40.70;20.95;;;;;;;15.42;41.60;101289.78;4425926;32;21629;-70
2022/01/16 00:10:28;;;;;;;38.47;21.05;;;;;;;14.97;42.05;101275.13;4430815;32;20461;-70
2022/01/16 00:12:59;;;;;;;40.88;20.80;;;;;;;14.65;42.54;101281.84;4429069;32;20066;-70
2022/01/16 00:15:26;;;;;;;44.83;21.48;;;;;;;14.74;42.41;101273.44;4429341;32;20048;-70
2022/01/16 00:18:16;;;;;;;40.12;21.37;;;;;;;14.94;41.99;101276.03;4431421;32;20052;-70
2022/01/16 00:20:37;;;;;;;35.40;20.12;;;;;;;15.15;41.69;101263.97;4428040;32;20124;-70
2022/01/16 00:23:05;;;;;;;41.05;21.85;;;;;;;14.98;42.21;101259.69;4429172;32;20069;-70
2022/01/16 00:25:31;;;;;;;39.03;20.50;;;;;;;14.73;42.44;101245.56;4429024;32;20086;-70
2022/01/16 00:27:57;;;;;;;41.05;22.30;;;;;;;14.97;42.05;101266.63;4428879;32;20052;-70
2022/01/16 00:30:23;;;;;;;42.10;23.42;;;;;;;14.99;41.98;101273.41;4428465;32;20098;-71
2022/01/16 00:32:49;;;;;;;40.50;21.02;;;;;;;15.08;41.84;101270.69;4429793;32;20068;-70
2022/01/16 00:35:14;;;;;;;36.75;20.90;;;;;;;15.25;41.62;101257.91;4428083;32;20092;-70
2022/01/16 00:37:41;;;;;;;45.53;21.55;;;;;;;15.15;41.81;101246.94;4428838;32;20133;-70
2022/01/16 00:40:10;;;;;;;49.08;22.30;;;;;;;14.84;42.46;101254.50;4428915;32;20407;-70
2022/01/16 00:42:36;;;;;;;45.90;21.70;;;;;;;15.26;41.69;101268.03;4432581;32;20427;-70
2022/01/16 00:45:04;;;;;;;42.13;20.42;;;;;;;15.24;41.56;101259.19;4430227;32;20026;-70
2022/01/16 00:47:30;;;;;;;40.00;20.48;;;;;;;15.23;41.68;101246.25;4429923;32;20081;-70
2022/01/16 00:49:56;;;;;;;42.35;20.62;;;;;;;14.45;43.02;101224.59;4430535;32;20057;-70
2022/01/16 00:52:22;;;;;;;37.97;19.62;;;;;;;14.63;42.57;101238.22;4429027;32;20073;-70
2022/01/16 00:54:47;;;;;;;49.17;22.30;;;;;;;14.28;43.01;101242.97;4428378;32;20025;-70
2022/01/16 00:57:13;;;;;;;38.35;20.95;;;;;;;13.83;44.48;101237.44;4427730;32;20037;-70
2022/01/16 00:59:40;;;;;;;40.65;20.98;;;;;;;14.12;43.97;101234.53;4430398;32;20033;-70
2022/01/16 01:02:06;;;;;;;41.72;22.80;;;;;;;14.06;44.16;101236.34;4427255;32;20102;-70
2022/01/16 01:04:32;;;;;;;45.47;23.05;;;;;;;13.68;45.07;101241.91;4425580;32;20077;-70
2022/01/16 01:06:57;;;;;;;47.42;22.30;;;;;;;13.52;45.54;101241.97;4430138;32;20525;-70
2022/01/16 01:09:24;;;;;;;37.58;20.20;;;;;;;13.95;44.40;101236.66;4429259;32;20090;-70
2022/01/16 01:11:50;;;;;;;38.22;18.23;;;;;;;13.86;44.60;101230.88;4427423;32;20038;-70
2022/01/16 01:17:03;;;;;;;37.03;18.58;;;;;;;14.13;44.53;101236.13;3973315;32;15021832;-71
2022/01/16 01:19:33;;;;;;;35.63;18.70;;;;;;;14.13;44.53;101236.13;4421781;32;20049;-70
2022/01/16 01:22:00;;;;;;;38.60;18.98;;;;;;;13.72;44.96;101219.19;4419798;32;20080;-71
2022/01/16 01:24:26;;;;;;;38.75;19.48;;;;;;;13.88;44.66;101219.91;4422406;32;20159;-71
2022/01/16 01:27:02;;;;;;;37.58;19.52;;;;;;;13.73;45.02;101220.75;4421323;32;20139;-69
2022/01/16 01:29:29;;;;;;;35.67;18.23;;;;;;;13.83;44.70;101214.78;4423276;32;20121;-70
2022/01/16 01:31:55;;;;;;;34.88;18.77;;;;;;;14.12;44.40;101230.91;4419755;32;20095;-70
2022/01/16 01:34:22;;;;;;;35.38;18.75;;;;;;;13.99;44.52;101211.06;4421260;32;20041;-70
2022/01/16 01:36:48;;;;;;;37.58;18.40;;;;;;;13.78;44.36;101252.12;4420938;32;20563;-70
2022/01/16 01:39:16;;;;;;;38.67;18.58;;;;;;;14.01;44.26;101236.91;4420996;32;20439;-70
2022/01/16 01:41:43;;;;;;;43.75;19.87;;;;;;;14.01;44.09;101256.69;4421343;32;20038;-70
2022/01/16 01:52:25;;;;;;;;;;;;;;;13.89;44.37;101249.78;4420448;32;20099;-70
2022/01/16 01:54:52;;;;;;;39.50;19.12;;;;;;;14.55;43.19;101194.38;4425037;32;20371;-70
2022/01/16 01:57:19;;;;;;;38.28;19.48;;;;;;;14.61;43.35;101124.56;4423284;32;20118;-70
2022/01/16 01:59:44;;;;;;;36.80;18.77;;;;;;;14.56;43.13;101123.09;4421254;32;20085;-70
2022/01/16 02:02:10;;;;;;;37.05;18.45;;;;;;;14.61;43.24;101161.38;4419906;32;20106;-70
2022/01/16 02:04:36;;;;;;;33.50;18.17;;;;;;;14.33;43.52;101151.00;4420427;32;20046;-70
2022/01/16 02:07:03;;;;;;;33.58;18.85;;;;;;;14.29;43.30;101139.78;4419172;32;20034;-70
2022/01/16 02:09:30;;;;;;;38.15;19.50;;;;;;;14.29;43.46;101173.75;4421699;32;20056;-70
2022/01/16 02:11:56;;;;;;;36.83;19.70;;;;;;;14.31;43.50;101205.25;4419772;32;20103;-70
2022/01/16 02:14:32;;;;;;;35.22;19.40;;;;;;;14.18;43.78;101200.81;4421293;32;20077;-70
2022/01/16 02:28:14;;;;;;;40.50;19.48;;;;;;;13.77;43.84;101227.91;4414037;32;20258;-70
2022/01/16 02:36:30;;;;;;;36.10;19.33;;;;;;;13.24;45.26;101220.13;3981101;32;15021094;-70
2022/01/16 02:39:06;;;;;;;41.05;19.20;;;;;;;13.24;45.26;101220.13;4429767;32;20060;-70
2022/01/16 02:41:33;;;;;;;38.13;20.35;;;;;;;12.86;45.74;101224.75;4427715;32;20118;-70
2022/01/16 02:44:00;;;;;;;46.55;19.40;;;;;;;12.42;46.66;101236.75;4431198;32;20091;-70
2022/01/16 02:49:02;;;;;;;40.70;23.85;;;;;;;12.71;46.90;101248.16;3980607;32;15022465;-70
2022/01/16 02:51:29;;;;;;;37.20;20.25;;;;;;;12.71;46.90;101248.16;4433128;32;20477;-70
2022/01/16 02:53:55;;;;;;;40.03;19.70;;;;;;;12.20;47.63;101243.31;4429843;32;20030;-70
2022/01/16 02:56:21;;;;;;;39.08;20.02;;;;;;;12.52;46.88;101237.72;4433748;32;20071;-70
2022/01/16 02:58:49;;;;;;;35.83;18.20;;;;;;;12.46;47.16;101254.41;4434119;32;20384;-70
2022/01/16 03:01:15;;;;;;;42.42;20.10;;;;;;;12.54;46.84;101233.22;4432950;32;20069;-70
2022/01/16 03:03:41;;;;;;;38.88;17.90;;;;;;;12.54;46.83;101240.91;4430790;32;20037;-70
2022/01/16 03:06:08;;;;;;;35.53;18.80;;;;;;;12.24;47.19;101219.44;4435604;32;20389;-70
2022/01/16 03:08:34;;;;;;;37.28;18.65;;;;;;;12.41;46.68;101206.94;4432233;32;20025;-70
2022/01/16 03:13:48;;;;;;;;;;;;;;;12.52;46.44;101215.16;4432933;32;20065;-70
2022/01/16 03:16:18;;;;;;;41.33;18.98;;;;;;;12.81;45.66;101210.37;4434473;32;20350;-70
2022/01/16 03:24:15;;;;;;;;;;;;;;;12.27;46.84;101195.97;4430186;32;20124;-70
2022/01/16 03:26:41;;;;;;;36.33;18.27;;;;;;;12.71;46.11;101198.12;4431308;32;20399;-70
2022/01/16 03:29:08;;;;;;;41.37;19.80;;;;;;;12.52;46.63;101196.16;4435576;32;20037;-70
2022/01/16 03:31:34;;;;;;;36.95;17.00;;;;;;;12.59;46.72;101184.72;4430390;32;20025;-70
2022/01/16 03:34:00;;;;;;;33.78;17.12;;;;;;;12.61;46.72;101199.16;4434099;32;20064;-70
2022/01/16 03:36:25;;;;;;;33.50;16.90;;;;;;;12.74;46.44;101197.25;4432022;32;20077;-70
2022/01/16 03:38:51;;;;;;;35.92;18.27;;;;;;;12.70;46.65;101199.34;4433878;32;20069;-70
2022/01/16 03:41:17;;;;;;;35.05;17.90;;;;;;;12.88;46.20;101196.84;4431453;32;20144;-70
2022/01/16 03:43:43;;;;;;;33.55;16.62;;;;;;;12.96;45.97;101183.34;4432569;32;20033;-70
2022/01/16 03:46:09;;;;;;;29.50;16.55;;;;;;;13.10;45.67;101178.12;4433815;32;20076;-70
2022/01/16 03:48:34;;;;;;;40.03;17.83;;;;;;;13.00;45.79;101176.37;4433576;32;20127;-70
2022/01/16 03:51:00;;;;;;;38.13;16.65;;;;;;;12.71;46.02;101181.19;4432779;32;20465;-70
2022/01/16 03:53:25;;;;;;;32.78;17.40;;;;;;;12.85;46.31;101163.84;4430411;32;20111;-70
2022/01/16 03:55:51;;;;;;;37.17;16.70;;;;;;;12.58;46.70;101151.28;4432661;32;20384;-70
2022/01/16 03:58:17;;;;;;;35.33;17.15;;;;;;;12.63;46.51;101157.19;4434513;32;20026;-70
2022/01/16 04:00:44;;;;;;;36.20;17.90;;;;;;;12.63;46.58;101164.84;4417183;32;20094;-70
2022/01/16 04:03:11;;;;;;;35.78;17.55;;;;;;;12.65;46.29;101143.41;4422454;32;20486;-70
2022/01/16 04:05:37;;;;;;;31.65;16.50;;;;;;;12.59;46.47;101153.66;4422360;32;20051;-70
2022/01/16 04:08:03;;;;;;;36.45;17.98;;;;;;;12.21;47.57;101154.63;4414724;32;20077;-70
2022/01/16 04:10:29;;;;;;;32.28;16.67;;;;;;;12.09;47.88;101159.72;4418465;32;20454;-70
2022/01/16 04:12:57;;;;;;;33.40;17.02;;;;;;;11.98;47.43;101161.19;4423229;32;20404;-70
2022/01/16 04:15:38;;;;;;;32.90;17.98;;;;;;;11.92;47.77;101160.13;4416912;32;20089;-71
2022/01/16 04:18:06;;;;;;;32.95;17.67;;;;;;;11.83;48.10;101166.38;4421700;32;20162;-70
2022/01/16 04:20:33;;;;;;;38.35;17.40;;;;;;;12.05;47.93;101166.66;4422004;32;20072;-70
2022/01/16 04:23:00;;;;;;;34.00;18.08;;;;;;;12.00;47.98;101153.88;4419906;32;20075;-70
2022/01/16 04:25:25;;;;;;;33.92;17.35;;;;;;;12.08;47.70;101162.97;4420870;32;20083;-70
2022/01/16 04:27:51;;;;;;;37.38;16.73;;;;;;;12.14;47.52;101158.41;4423241;32;20466;-70
2022/01/16 04:30:17;;;;;;;33.25;16.67;;;;;;;12.23;47.51;101169.06;4423511;32;21496;-70
2022/01/16 04:32:42;;;;;;;35.92;16.30;;;;;;;12.38;47.37;101171.12;4419632;32;20110;-70
2022/01/16 04:35:09;;;;;;;34.72;17.98;;;;;;;12.57;47.06;101173.06;4424570;32;20368;-70
2022/01/16 04:37:35;;;;;;;38.22;17.75;;;;;;;13.03;46.47;101175.50;4419971;32;20438;-70
2022/01/16 04:40:02;;;;;;;35.35;17.73;;;;;;;13.14;46.21;101189.34;4418016;32;20127;-70
2022/01/16 04:45:15;;;;;;;32.20;17.33;;;;;;;13.41;46.10;101182.09;4422239;32;20385;-70
2022/01/16 04:47:42;;;;;;;33.83;17.27;;;;;;;13.50;46.02;101182.22;4421940;32;20093;-70
2022/01/16 04:50:11;;;;;;;31.12;16.92;;;;;;;13.45;46.02;101182.81;4422192;32;20389;-70
2022/01/16 04:52:38;;;;;;;33.95;16.33;;;;;;;13.63;45.98;101183.06;4418542;32;20116;-70
2022/01/16 04:55:04;;;;;;;32.22;17.02;;;;;;;13.69;45.92;101180.50;4421596;32;20053;-70
2022/01/16 04:57:30;;;;;;;31.95;16.17;;;;;;;13.65;46.05;101183.41;4420951;32;20147;-70
2022/01/16 04:59:56;;;;;;;30.02;16.02;;;;;;;13.60;46.04;101186.00;4421528;32;20095;-70
2022/01/16 05:02:21;;;;;;;31.87;16.87;;;;;;;13.49;46.49;101177.81;4422643;32;20060;-70
2022/01/16 05:04:47;;;;;;;29.73;16.77;;;;;;;13.45;46.33;101177.16;4419758;32;20072;-70
2022/01/16 05:07:13;;;;;;;33.10;15.93;;;;;;;13.28;46.62;101178.44;4417088;32;20434;-70
2022/01/16 05:09:39;;;;;;;36.92;16.98;;;;;;;13.21;46.42;101169.34;4419761;32;20065;-70
2022/01/16 05:12:11;;;;;;;34.90;16.67;;;;;;;13.01;47.09;101171.53;4420273;32;20249;-70
2022/01/16 05:17:22;;;;;;;;;;;;;;;12.82;47.39;101167.56;4421795;32;20306;-69
2022/01/16 05:19:48;;;;;;;32.35;16.77;;;;;;;13.32;46.73;101167.03;4422402;32;20022;-70
2022/01/16 05:22:13;;;;;;;36.70;17.37;;;;;;;12.83;47.71;101177.66;4418403;32;20102;-70
2022/01/16 05:24:39;;;;;;;33.78;16.10;;;;;;;12.89;48.08;101178.66;4418333;32;20029;-70
2022/01/16 05:27:06;;;;;;;33.67;16.42;;;;;;;12.95;48.07;101182.53;4419354;32;20392;-70
2022/01/16 05:29:32;;;;;;;31.10;16.10;;;;;;;12.74;48.03;101185.13;4421969;32;20145;-70
2022/01/16 05:31:58;;;;;;;37.25;16.12;;;;;;;12.83;48.32;101182.47;4419645;32;20030;-70
2022/01/16 05:34:26;;;;;;;28.48;15.13;;;;;;;12.60;48.69;101168.53;4421822;32;20455;-70
2022/01/16 05:36:52;;;;;;;35.42;15.95;;;;;;;12.52;48.90;101165.09;4420601;32;20061;-70
2022/01/16 05:39:18;;;;;;;31.10;15.95;;;;;;;12.66;48.83;101178.88;4421521;32;20049;-70
2022/01/16 05:41:44;;;;;;;30.20;14.95;;;;;;;12.49;49.28;101166.00;4421171;32;20556;-70
2022/01/16 05:44:10;;;;;;;37.40;16.55;;;;;;;12.51;48.78;101138.13;4419142;32;20069;-70
2022/01/16 05:46:35;;;;;;;36.83;16.52;;;;;;;12.65;48.86;101162.37;4420638;32;20436;-70
2022/01/16 05:49:01;;;;;;;30.65;15.50;;;;;;;12.76;48.66;101157.25;4422740;32;20144;-70
2022/01/16 05:51:27;;;;;;;28.50;15.13;;;;;;;12.76;48.72;101168.56;4419329;32;20045;-70
2022/01/16 05:53:52;;;;;;;36.28;16.40;;;;;;;12.76;48.68;101179.84;4418752;32;20473;-70
2022/01/16 05:56:18;;;;;;;33.10;16.20;;;;;;;12.64;48.96;101175.69;4422121;32;20401;-70
2022/01/16 05:58:44;;;;;;;35.72;15.88;;;;;;;12.56;49.05;101174.31;4417876;32;20068;-70
2022/01/16 06:01:09;;;;;;;29.85;15.65;;;;;;;12.43;49.67;101173.44;4422125;32;20416;-70
2022/01/16 06:03:35;;;;;;;30.73;16.27;;;;;;;12.36;49.20;101170.75;4418348;32;20144;-70
2022/01/16 06:06:01;;;;;;;33.78;15.20;;;;;;;12.46;49.42;101169.72;4419379;32;20072;-69
2022/01/16 06:08:27;;;;;;;30.52;15.07;;;;;;;12.64;49.03;101178.53;4420153;32;20045;-69
2022/01/16 06:10:52;;;;;;;29.55;15.45;;;;;;;12.60;49.07;101183.47;4418519;32;20122;-69
2022/01/16 06:13:18;;;;;;;31.87;15.25;;;;;;;12.81;48.79;101182.13;4420742;32;20086;-69
2022/01/16 06:15:46;;;;;;;32.55;15.13;;;;;;;12.80;48.86;101177.72;4419652;32;20093;-69
2022/01/16 06:18:13;;;;;;;28.48;14.68;;;;;;;12.86;48.75;101173.13;4420184;32;20498;-69
2022/01/16 06:20:40;;;;;;;33.67;15.00;;;;;;;13.02;48.52;101178.78;4421736;32;20455;-69
2022/01/16 06:23:06;;;;;;;32.50;15.15;;;;;;;12.95;48.31;101176.88;4418710;32;20120;-69
2022/01/16 06:25:32;;;;;;;29.80;15.23;;;;;;;12.93;48.41;101175.75;4419327;32;20057;-69
2022/01/16 06:27:58;;;;;;;28.10;14.30;;;;;;;13.03;48.24;101189.63;4420226;32;20498;-69
2022/01/16 06:30:23;;;;;;;30.45;13.73;;;;;;;12.86;48.77;101173.13;4419679;32;20456;-69
2022/01/16 06:32:49;;;;;;;25.75;14.65;;;;;;;12.75;48.37;101184.69;4422111;32;20093;-69
2022/01/16 06:35:15;;;;;;;26.90;14.55;;;;;;;12.88;48.46;101194.03;4419593;32;20045;-69
2022/01/16 06:37:41;;;;;;;26.27;14.68;;;;;;;12.75;48.90;101193.16;4418169;32;20104;-69
2022/01/16 06:40:08;;;;;;;28.58;15.07;;;;;;;12.52;49.13;101189.75;4420133;32;20058;-69
2022/01/16 06:42:35;;;;;;;32.40;15.02;;;;;;;12.48;49.26;101197.47;4416587;32;20115;-69
2022/01/16 06:45:00;;;;;;;25.05;13.13;;;;;;;12.41;49.10;101200.50;4421797;32;20586;-69
2022/01/16 06:47:26;;;;;;;30.02;14.23;;;;;;;12.34;49.25;101197.84;4421200;32;20156;-69
2022/01/16 06:49:52;;;;;;;28.60;14.60;;;;;;;12.32;49.24;101206.75;4420770;32;20439;-69
2022/01/16 06:52:17;;;;;;;27.37;14.10;;;;;;;12.39;48.93;101209.41;4419744;32;20207;-69
2022/01/16 06:54:43;;;;;;;26.23;14.10;;;;;;;12.37;48.99;101208.25;4421672;32;20704;-69
2022/01/16 06:57:09;;;;;;;26.12;15.05;;;;;;;12.44;48.78;101202.44;4418827;32;20068;-69
2022/01/16 06:59:38;;;;;;;30.23;15.23;;;;;;;12.53;48.93;101211.88;4418425;32;20392;-69
2022/01/16 07:02:05;;;;;;;23.48;13.40;;;;;;;12.65;48.61;101214.00;4420440;32;20093;-69
2022/01/16 07:04:31;;;;;;;30.48;13.57;;;;;;;12.70;48.76;101219.09;4418933;32;20090;-69
2022/01/16 07:06:57;;;;;;;21.98;12.82;;;;;;;12.65;48.70;101228.12;4415905;32;20042;-69
2022/01/16 07:09:23;;;;;;;24.63;13.50;;;;;;;12.56;48.66;101222.31;4416880;32;20119;-69
2022/01/16 07:11:49;;;;;;;26.83;13.25;;;;;;;12.66;48.36;101226.87;4420709;32;20077;-69
2022/01/16 07:14:14;;;;;;;30.85;13.38;;;;;;;12.62;48.32;101229.00;4419376;32;20069;-69
2022/01/16 07:16:40;;;;;;;29.85;14.13;;;;;;;12.65;48.47;101230.94;4415028;32;20385;-69
2022/01/16 07:19:05;;;;;;;27.15;13.55;;;;;;;12.67;48.44;101236.94;4421386;32;20081;-69
2022/01/16 07:21:31;;;;;;;27.48;13.18;;;;;;;12.73;48.20;101251.34;4418433;32;20094;-68
2022/01/16 07:23:57;;;;;;;24.48;13.48;;;;;;;12.60;47.90;101250.44;4417149;32;20709;-68
2022/01/16 07:26:24;;;;;;;22.92;13.07;;;;;;;12.46;47.71;101267.72;4417929;32;20471;-69
2022/01/16 07:28:51;;;;;;;24.30;14.05;;;;;;;12.46;48.04;101262.88;4419453;32;20505;-69
2022/01/16 07:31:17;;;;;;;25.58;13.52;;;;;;;12.40;48.55;101267.47;4421615;32;20123;-68
2022/01/16 07:33:43;;;;;;;25.27;12.93;;;;;;;12.36;48.80;101278.00;4419201;32;20480;-69
2022/01/16 07:36:08;;;;;;;28.75;12.50;;;;;;;12.26;48.78;101283.88;4424548;32;20042;-70
2022/01/16 07:38:34;;;;;;;27.73;12.73;;;;;;;12.35;48.64;101290.53;4421027;32;20077;-69
2022/01/16 07:41:00;;;;;;;25.30;13.57;;;;;;;12.36;48.64;101280.84;4420422;32;20150;-69
2022/01/16 07:43:26;;;;;;;31.33;14.10;;;;;;;12.42;48.91;101298.84;4424468;32;20077;-69
2022/01/16 07:45:51;;;;;;;26.17;13.52;;;;;;;12.41;49.14;101279.53;4423458;32;20116;-69
2022/01/16 07:48:17;;;;;;;23.87;12.88;;;;;;;12.44;48.95;101298.41;4422963;32;20057;-69
2022/01/16 07:50:43;;;;;;;30.10;14.23;;;;;;;12.62;48.67;101308.06;4419689;32;20071;-69
2022/01/16 07:53:09;;;;;;;23.33;14.13;;;;;;;12.60;48.67;101301.25;4418715;32;20432;-69
2022/01/16 07:55:34;;;;;;;34.65;21.15;;;;;;;12.73;48.51;101294.47;4422526;32;20557;-69
2022/01/16 07:58:01;;;;;;;26.33;13.88;;;;;;;12.85;48.51;101296.59;4423959;32;20101;-69
2022/01/16 08:00:27;;;;;;;26.98;13.45;;;;;;;12.94;48.48;101291.13;4419586;32;20073;-69
2022/01/16 08:02:53;;;;;;;24.67;13.77;;;;;;;13.04;48.51;101304.22;4423044;32;20025;-70
2022/01/16 08:05:20;;;;;;;26.05;13.07;;;;;;;13.02;48.29;101329.31;4420508;32;20618;-69
2022/01/16 08:07:47;;;;;;;27.15;13.90;;;;;;;13.08;48.34;101330.38;4419804;32;20100;-69
2022/01/16 08:10:14;;;;;;;24.40;12.73;;;;;;;13.20;48.27;101326.81;4418555;32;20049;-70
2022/01/16 08:12:40;;;;;;;22.48;11.65;;;;;;;13.31;49.34;101320.91;4423435;32;20133;-69
2022/01/16 08:15:07;;;;;;;24.92;12.37;;;;;;;13.40;49.69;101319.03;4421321;32;20092;-69
2022/01/16 08:17:35;;;;;;;23.38;11.85;;;;;;;13.92;48.87;101327.31;4425018;32;20183;-69
2022/01/16 08:20:04;;;;;;;21.77;11.40;;;;;;;13.89;48.63;101331.03;4419203;32;20476;-69
2022/01/16 08:22:30;;;;;;;24.83;11.63;;;;;;;14.26;48.42;101338.09;4423176;32;20547;-69
2022/01/16 08:24:56;;;;;;;22.02;10.52;;;;;;;14.26;48.15;101355.09;4423612;32;20117;-69
2022/01/16 08:27:22;;;;;;;28.42;11.65;;;;;;;14.12;48.77;101342.09;4423928;32;20034;-69
2022/01/16 08:29:47;;;;;;;22.35;10.68;;;;;;;14.59;47.52;101354.47;4420403;32;20108;-69
2022/01/16 08:32:13;;;;;;;25.65;11.25;;;;;;;14.77;47.40;101348.22;4421639;32;20082;-69
2022/01/16 08:34:39;;;;;;;21.92;12.00;;;;;;;14.82;46.91;101342.00;4422643;32;20050;-69
2022/01/16 08:37:04;;;;;;;21.17;10.75;;;;;;;14.98;46.47;101348.38;4424409;32;20135;-69
2022/01/16 08:39:30;;;;;;;19.90;11.23;;;;;;;14.93;46.33;101346.09;4416980;32;20092;-69
2022/01/16 08:41:56;;;;;;;22.17;9.32;;;;;;;15.01;46.28;101344.63;4422633;32;20077;-69
2022/01/16 08:44:21;;;;;;;21.00;10.73;;;;;;;14.73;46.49;101350.41;4423692;32;20186;-69
2022/01/16 08:46:48;;;;;;;22.70;11.38;;;;;;;15.11;45.47;101362.50;4424067;32;20046;-69
2022/01/16 08:49:14;;;;;;;24.52;10.13;;;;;;;15.32;45.10;101358.97;4421024;32;20353;-69
2022/01/16 08:51:41;;;;;;;19.30;10.38;;;;;;;15.23;45.31;101365.34;4419419;32;20046;-69
2022/01/16 08:54:06;;;;;;;18.92;9.98;;;;;;;15.12;45.21;101370.56;4423947;32;20131;-69
2022/01/16 08:56:33;;;;;;;19.08;9.65;;;;;;;14.96;45.58;101375.56;4419226;32;20417;-69
2022/01/16 08:58:59;;;;;;;20.73;10.38;;;;;;;15.07;45.44;101373.97;4420594;32;20435;-69
2022/01/16 09:01:25;;;;;;;19.10;9.00;;;;;;;15.15;45.10;101374.53;4419271;32;20046;-68
2022/01/16 09:03:52;;;;;;;24.83;9.63;;;;;;;15.00;44.99;101388.38;4421486;32;20449;-68
2022/01/16 09:06:19;;;;;;;18.02;9.13;;;;;;;15.05;45.09;101392.69;4421184;32;20419;-68
2022/01/16 09:08:45;;;;;;;17.75;8.70;;;;;;;14.79;45.65;101389.03;4421270;32;20079;-69
2022/01/16 09:11:11;;;;;;;16.52;8.35;;;;;;;14.90;45.54;101385.87;4418979;32;20548;-70
2022/01/16 09:13:40;;;;;;;15.23;8.00;;;;;;;14.92;45.49;101398.38;4417277;32;20093;-69
2022/01/16 09:16:07;;;;;;;17.08;8.60;;;;;;;14.84;45.39;101396.19;4418392;32;20583;-69
2022/01/16 09:18:34;;;;;;;17.77;8.10;;;;;;;15.20;44.83;101410.81;4422467;32;20756;-69
2022/01/16 09:21:01;;;;;;;20.55;8.10;;;;;;;15.10;45.18;101409.13;4419168;32;20083;-69
2022/01/16 09:23:28;;;;;;;15.13;7.93;;;;;;;15.41;44.54;101410.94;4419806;32;20662;-69
2022/01/16 09:25:55;;;;;;;19.30;7.95;;;;;;;15.41;44.52;101421.50;4419879;32;20072;-69
2022/01/16 09:28:20;;;;;;;15.38;7.93;;;;;;;15.50;44.20;101418.78;4423568;32;20045;-69
2022/01/16 09:30:46;;;;;;;18.60;7.68;;;;;;;15.77;44.18;101414.16;4418929;32;20100;-69
2022/01/16 09:33:12;;;;;;;18.92;8.75;;;;;;;15.98;43.64;101429.66;4419987;32;20069;-69
2022/01/16 09:35:37;;;;;;;13.48;6.80;;;;;;;16.37;43.14;101434.75;4417982;32;20037;-70
2022/01/16 09:38:04;;;;;;;12.88;7.15;;;;;;;16.58;42.58;101422.63;4421435;32;20045;-69
2022/01/16 09:40:30;;;;;;;11.90;6.68;;;;;;;16.61;41.99;101437.94;4420052;32;20033;-69
2022/01/16 09:42:57;;;;;;;12.35;5.80;;;;;;;16.87;41.75;101445.03;4421120;32;20451;-69
2022/01/16 09:45:22;;;;;;;12.98;6.10;;;;;;;17.16;40.89;101446.31;4419742;32;20072;-69
2022/01/16 09:47:49;;;;;;;12.57;5.45;;;;;;;17.29;40.21;101441.31;4418042;32;20097;-69
2022/01/16 09:50:19;;;;;;;9.88;5.50;;;;;;;17.57;39.83;101443.03;4420412;32;20338;-69
2022/01/16 09:52:46;;;;;;;9.43;4.97;;;;;;;18.25;38.81;101458.03;4418988;32;20732;-69
2022/01/16 09:55:13;;;;;;;8.93;4.80;;;;;;;17.89;38.67;101456.69;4418992;32;20341;-70
2022/01/16 09:57:40;;;;;;;10.70;5.32;;;;;;;17.54;39.17;101465.94;4420837;32;20090;-70
2022/01/16 10:00:09;;;;;;;11.95;6.53;;;;;;;18.16;38.39;101467.34;4420890;32;20429;-70
2022/01/16 10:02:34;;;;;;;12.43;5.50;;;;;;;18.53;37.62;101471.81;4420328;32;20352;-70
2022/01/16 10:05:00;;;;;;;9.25;4.90;;;;;;;18.82;37.63;101482.72;4419021;32;20085;-70
2022/01/16 10:07:26;;;;;;;9.13;5.00;;;;;;;18.92;36.33;101490.78;4417336;32;20084;-70
2022/01/16 10:10:09;;;;;;;11.93;5.28;;;;;;;19.49;36.10;101506.03;4418273;32;20429;-70
2022/01/16 10:12:35;;;;;;;9.20;4.87;;;;;;;19.78;34.50;101509.84;4419568;32;20365;-70
2022/01/16 10:15:24;;;;;;;8.30;4.50;;;;;;;19.08;35.66;101512.44;4417168;32;20124;-69
2022/01/16 10:17:52;;;;;;;10.38;4.90;;;;;;;19.50;35.20;101510.44;4420120;32;20099;-69
2022/01/16 10:20:18;;;;;;;12.32;5.30;;;;;;;19.35;35.41;101510.34;4420402;32;20278;-70
2022/01/16 10:22:50;;;;;;;8.40;4.68;;;;;;;19.27;35.79;101522.59;4418903;32;20081;-69
2022/01/16 10:25:18;;;;;;;11.15;5.72;;;;;;;18.83;36.70;101522.16;4419521;32;20095;-69
2022/01/16 10:27:46;;;;;;;7.75;4.78;;;;;;;18.90;36.43;101529.63;4419114;32;20145;-69
2022/01/16 10:30:15;;;;;;;10.85;5.35;;;;;;;19.36;36.11;101520.50;4419554;32;20608;-69
2022/01/16 10:32:44;;;;;;;11.02;4.87;;;;;;;19.65;35.36;101514.19;4420284;32;20152;-69
2022/01/16 10:37:52;;;;;;;12.25;6.05;;;;;;;20.36;34.85;101532.22;3989093;31;15141564;-70
2022/01/16 10:40:36;;;;;;;9.88;4.93;;;;;;;20.36;34.85;101532.22;4446611;32;20045;-70
2022/01/16 10:43:06;;;;;;;10.10;5.53;;;;;;;20.31;34.19;101527.16;4449726;32;20037;-70
2022/01/16 10:45:33;;;;;;;9.05;5.40;;;;;;;19.74;35.37;101525.59;4451895;32;20077;-70
2022/01/16 10:48:01;;;;;;;10.55;5.55;;;;;;;20.03;34.63;101545.75;4448441;32;20088;-70
2022/01/16 10:50:33;;;;;;;8.98;5.05;;;;;;;20.18;34.70;101537.25;4444825;32;20047;-70
2022/01/16 10:55:41;;;;;;;9.68;5.25;;;;;;;20.19;34.38;101545.34;3977413;32;15023854;-71
2022/01/16 11:00:52;;;;;;;8.57;4.97;;;;;;;21.29;33.39;101567.66;3978537;32;15023099;-70
2022/01/16 11:03:19;;;;;;;7.60;4.70;;;;;;;21.32;33.51;101557.28;4428943;32;20370;-70
2022/01/16 11:05:46;;;;;;;9.68;4.95;;;;;;;21.81;32.44;101568.84;4430110;32;20335;-70
2022/01/16 11:08:14;;;;;;;10.30;4.87;;;;;;;21.95;31.91;101567.25;4427887;32;20038;-70
2022/01/16 11:10:44;;;;;;;9.55;4.82;;;;;;;21.31;32.19;101565.13;4427435;32;20029;-70
2022/01/16 11:13:12;;;;;;;8.25;3.85;;;;;;;21.96;31.71;101568.84;4424993;32;20065;-71
2022/01/16 11:15:40;;;;;;;9.32;4.30;;;;;;;21.99;31.38;101577.22;4428175;32;20514;-70
2022/01/16 11:18:08;;;;;;;12.95;5.15;;;;;;;21.15;32.36;101585.63;4431091;32;20147;-71
2022/01/16 11:20:36;;;;;;;9.88;4.30;;;;;;;21.15;32.89;101597.09;4431379;32;20089;-70
2022/01/16 11:23:13;;;;;;;10.63;4.03;;;;;;;20.75;33.35;101596.78;4429874;32;20071;-70
2022/01/16 11:25:40;;;;;;;9.63;4.60;;;;;;;21.23;32.91;101611.81;4429289;32;20077;-70
2022/01/16 11:28:11;;;;;;;11.93;4.85;;;;;;;21.02;33.29;101612.94;4430332;32;20038;-70
2022/01/16 11:30:41;;;;;;;11.30;4.70;;;;;;;21.63;32.64;101635.72;4429588;32;20069;-70
2022/01/16 11:33:07;;;;;;;10.77;5.30;;;;;;;21.47;32.95;101641.94;4429196;32;20033;-70
2022/01/16 11:35:41;;;;;;;12.25;4.93;;;;;;;21.46;33.07;101648.97;4429482;32;20678;-70
2022/01/16 11:38:07;;;;;;;8.48;4.85;;;;;;;21.46;32.81;101646.09;4426811;32;20038;-70
2022/01/16 11:40:44;;;;;;;7.90;4.70;;;;;;;21.00;33.79;101644.91;4429515;32;20099;-69
2022/01/16 11:43:12;;;;;;;9.55;4.75;;;;;;;21.29;33.48;101650.69;4428603;32;20060;-69
2022/01/16 11:46:03;;;;;;;10.57;4.85;;;;;;;21.12;33.58;101655.31;4429803;32;20517;-69
2022/01/16 11:48:44;;;;;;;8.38;4.20;;;;;;;20.54;34.52;101655.06;4431345;32;20065;-71
2022/01/16 11:59:38;;;;;;;10.85;5.40;;;;;;;19.86;37.33;101670.28;3964622;32;15029083;-71
2022/01/16 12:09:57;;;;;;;12.45;6.07;;;;;;;19.14;39.63;101685.41;3959148;32;15022301;-69
2022/01/16 12:25:30;;;;;;;15.10;7.15;;;;;;;18.89;40.82;101714.22;3979725;32;15023046;-68
2022/01/16 12:30:55;;;;;;;16.30;7.70;;;;;;;18.30;41.48;101705.28;3992829;31;15018370;-69
2022/01/16 12:33:42;;;;;;;18.02;9.73;;;;;;;18.24;42.10;101719.38;4450148;32;20056;-69
2022/01/16 12:36:12;;;;;;;21.48;11.63;;;;;;;18.23;41.63;101725.53;4451607;32;20029;-69
2022/01/16 12:38:49;;;;;;;24.37;11.98;;;;;;;17.69;42.94;101717.47;4451186;32;20033;-68